createdAt,value
2018-07-13T00:02:09.399Z,10.90
2018-07-13T00:07:42.575Z,11.20
2018-07-13T00:10:12.734Z,11.90
2018-07-13T00:12:42.529Z,11.07
2018-07-13T00:15:12.503Z,10.43
2018-07-13T00:17:42.381Z,10.47
2018-07-13T00:20:11.964Z,10.50
2018-07-13T00:22:41.885Z,9.70
2018-07-13T00:25:11.513Z,10.50
2018-07-13T00:27:43.044Z,10.93
2018-07-13T00:30:25.971Z,10.57
2018-07-13T00:32:55.502Z,10.17
2018-07-13T00:35:34.383Z,10.70
2018-07-13T00:38:03.941Z,10.43
2018-07-13T00:40:33.514Z,10.40
2018-07-13T00:43:03.121Z,10.67
2018-07-13T00:45:32.813Z,10.93
2018-07-13T00:48:02.346Z,10.33
2018-07-13T00:50:31.877Z,11.07
2018-07-13T00:53:15.057Z,10.90
2018-07-13T00:55:51.231Z,10.80
2018-07-13T00:58:21.080Z,10.70
2018-07-13T01:00:50.577Z,10.80
2018-07-13T01:03:31.049Z,10.60
2018-07-13T01:06:08.291Z,11.23
2018-07-13T01:08:37.845Z,10.77
2018-07-13T01:11:07.444Z,11.40
2018-07-13T01:13:37.020Z,10.40
2018-07-13T01:16:06.786Z,10.40
2018-07-13T01:18:48.247Z,10.60
2018-07-13T01:21:18.171Z,11.43
2018-07-13T01:23:48.233Z,10.50
2018-07-13T01:26:17.942Z,11.50
2018-07-13T01:29:01.292Z,10.20
2018-07-13T01:31:32.257Z,10.40
2018-07-13T01:34:01.842Z,11.37
2018-07-13T01:36:31.699Z,10.47
2018-07-13T01:39:01.591Z,10.87
2018-07-13T01:41:31.286Z,9.90
2018-07-13T01:44:00.806Z,11.80
2018-07-13T01:46:30.557Z,10.73
2018-07-13T01:49:00.120Z,11.00
2018-07-13T01:51:29.723Z,10.60
2018-07-13T01:53:59.373Z,10.43
2018-07-13T01:56:29.481Z,10.83
2018-07-13T01:58:59.444Z,10.60
2018-07-13T02:01:29.749Z,10.40
2018-07-13T02:03:59.580Z,11.40
2018-07-13T02:06:29.239Z,10.53
2018-07-13T02:08:59.363Z,11.53
2018-07-13T02:11:42.381Z,10.90
2018-07-13T02:14:19.367Z,10.60
2018-07-13T02:16:53.930Z,11.10
2018-07-13T02:19:23.894Z,11.73
2018-07-13T02:21:53.439Z,11.23
2018-07-13T02:24:31.751Z,11.50
2018-07-13T02:27:01.623Z,11.37
2018-07-13T02:29:31.259Z,12.50
2018-07-13T02:32:00.881Z,12.20
2018-07-13T02:34:30.989Z,12.10
2018-07-13T02:37:00.590Z,11.20
2018-07-13T02:39:43.274Z,10.97
2018-07-13T02:42:13.201Z,11.27
2018-07-13T02:44:43.019Z,10.60
2018-07-13T02:47:12.753Z,10.73
2018-07-13T02:49:50.495Z,10.90
2018-07-13T02:52:25.990Z,10.40
2018-07-13T02:54:55.836Z,11.07
2018-07-13T02:57:25.994Z,11.50
2018-07-13T02:59:55.720Z,12.47
2018-07-13T03:02:25.567Z,10.97
2018-07-13T03:04:55.639Z,10.60
2018-07-13T03:07:35.888Z,11.50
2018-07-13T03:10:16.243Z,11.80
2018-07-13T03:12:48.053Z,10.80
2018-07-13T03:15:18.061Z,11.17
2018-07-13T03:17:55.076Z,11.03
2018-07-13T03:20:30.919Z,10.27
2018-07-13T03:23:05.703Z,9.93
2018-07-13T03:25:41.345Z,10.03
2018-07-13T03:28:11.021Z,11.03
2018-07-13T03:30:40.796Z,9.13
2018-07-13T03:33:10.676Z,10.27
2018-07-13T03:35:52.062Z,10.80
2018-07-13T03:38:21.898Z,9.90
2018-07-13T03:40:51.631Z,9.37
2018-07-13T03:43:35.122Z,10.30
2018-07-13T03:46:18.195Z,10.50
2018-07-13T03:48:59.812Z,10.40
2018-07-13T03:51:36.522Z,10.73
2018-07-13T03:54:06.855Z,9.40
2018-07-13T03:56:36.473Z,9.70
2018-07-13T03:59:06.322Z,9.13
2018-07-13T04:01:37.329Z,9.80
2018-07-13T04:04:12.700Z,10.20
2018-07-13T04:06:42.698Z,10.57
2018-07-13T04:09:18.346Z,9.20
2018-07-13T04:11:48.293Z,9.50
2018-07-13T04:14:17.957Z,9.90
2018-07-13T04:16:47.658Z,10.40
2018-07-13T04:19:17.441Z,10.83
2018-07-13T04:21:47.185Z,9.37
2018-07-13T04:24:17.355Z,10.27
2018-07-13T04:26:48.399Z,9.10
2018-07-13T04:29:18.351Z,9.50
2018-07-13T04:31:47.914Z,10.57
2018-07-13T04:34:17.819Z,9.60
2018-07-13T04:36:54.913Z,10.17
2018-07-13T04:39:38.898Z,9.30
2018-07-13T04:42:15.076Z,10.20
2018-07-13T04:44:45.096Z,11.10
2018-07-13T04:47:14.947Z,10.20
2018-07-13T04:49:53.044Z,10.67
2018-07-13T04:52:25.740Z,10.27
2018-07-13T04:55:02.752Z,10.10
2018-07-13T04:57:46.197Z,10.50
2018-07-13T05:00:16.108Z,10.63
2018-07-13T05:02:46.453Z,10.23
2018-07-13T05:05:16.379Z,9.90
2018-07-13T05:07:46.409Z,10.27
2018-07-13T05:10:16.557Z,11.73
2018-07-13T05:12:46.456Z,11.23
2018-07-13T05:15:16.244Z,10.63
2018-07-13T05:17:46.388Z,10.97
2018-07-13T05:20:20.558Z,10.20
2018-07-13T05:22:56.330Z,11.67
2018-07-13T05:25:26.634Z,10.53
2018-07-13T05:27:56.873Z,12.00
2018-07-13T05:30:26.850Z,10.40
2018-07-13T05:33:02.671Z,11.70
2018-07-13T05:35:32.661Z,10.30
2018-07-13T05:38:02.638Z,10.47
2018-07-13T05:40:35.256Z,11.77
2018-07-13T05:43:05.510Z,12.50
2018-07-13T05:45:35.593Z,11.77
2018-07-13T05:48:11.061Z,12.53
2018-07-13T05:50:52.920Z,11.77
2018-07-13T05:53:23.311Z,13.10
2018-07-13T05:55:53.616Z,13.70
2018-07-13T05:58:23.697Z,13.90
2018-07-13T06:00:54.943Z,13.00
2018-07-13T06:03:25.124Z,13.97
2018-07-13T06:05:55.107Z,13.80
2018-07-13T06:08:25.821Z,14.47
2018-07-13T06:10:55.861Z,13.57
2018-07-13T06:13:25.711Z,13.07
2018-07-13T06:16:00.789Z,14.27
2018-07-13T06:18:30.673Z,13.40
2018-07-13T06:21:01.068Z,14.63
2018-07-13T06:23:31.003Z,14.60
2018-07-13T06:26:00.833Z,13.60
2018-07-13T06:28:31.246Z,14.40
2018-07-13T06:31:00.995Z,15.13
2018-07-13T06:33:31.289Z,15.50
2018-07-13T06:36:01.914Z,13.97
2018-07-13T06:38:32.218Z,14.43
2018-07-13T06:41:02.733Z,14.07
2018-07-13T06:43:40.603Z,15.40
2018-07-13T06:46:11.326Z,13.90
2018-07-13T06:48:43.270Z,15.20
2018-07-13T06:51:13.922Z,15.60
2018-07-13T06:53:53.467Z,14.57
2018-07-13T06:56:32.659Z,14.33
2018-07-13T06:59:11.765Z,14.50
2018-07-13T07:01:49.366Z,16.60
2018-07-13T07:04:26.286Z,16.00
2018-07-13T07:06:57.330Z,16.00
2018-07-13T07:09:29.540Z,15.80
2018-07-13T07:12:28.715Z,17.43
2018-07-13T07:14:59.236Z,16.43
2018-07-13T07:17:29.261Z,15.13
2018-07-13T07:20:05.568Z,15.57
2018-07-13T07:22:36.000Z,14.77
2018-07-13T07:25:06.709Z,15.00
2018-07-13T07:27:37.031Z,15.60
2018-07-13T07:30:12.487Z,15.67
2018-07-13T07:32:45.997Z,15.70
2018-07-13T07:35:35.932Z,15.70
2018-07-13T07:38:06.258Z,14.47
2018-07-13T07:40:37.006Z,15.90
2018-07-13T07:43:07.346Z,15.20
2018-07-13T07:45:37.527Z,16.43
2018-07-13T07:48:08.958Z,15.20
2018-07-13T07:50:39.498Z,16.73
2018-07-13T07:53:17.135Z,15.77
2018-07-13T07:55:47.573Z,16.57
2018-07-13T07:58:17.744Z,15.60
2018-07-13T08:00:52.843Z,16.30
2018-07-13T08:03:23.314Z,16.20
2018-07-13T08:05:58.800Z,15.17
2018-07-13T08:08:29.124Z,16.30
2018-07-13T08:10:59.631Z,19.80
2018-07-13T08:13:35.465Z,16.90
2018-07-13T08:16:10.426Z,16.87
2018-07-13T08:18:40.644Z,17.03
2018-07-13T08:21:11.379Z,15.77
2018-07-13T08:23:42.622Z,17.83
2018-07-13T08:26:13.886Z,16.00
2018-07-13T08:28:46.292Z,16.27
2018-07-13T08:31:16.890Z,16.83
2018-07-13T08:33:47.417Z,16.20
2018-07-13T08:36:18.029Z,17.17
2018-07-13T08:38:48.225Z,18.83
2018-07-13T08:41:18.604Z,18.53
2018-07-13T08:43:49.154Z,16.37
2018-07-13T08:46:19.421Z,18.73
2018-07-13T08:48:49.525Z,16.53
2018-07-13T08:51:27.298Z,17.07
2018-07-13T08:53:57.409Z,16.50
2018-07-13T08:56:42.974Z,18.00
2018-07-13T08:59:13.164Z,17.47
2018-07-13T09:01:43.303Z,19.43
2018-07-13T09:04:13.187Z,18.07
2018-07-13T09:06:43.446Z,17.10
2018-07-13T09:09:16.863Z,16.43
2018-07-13T09:11:54.024Z,15.17
2018-07-13T09:14:24.245Z,14.80
2018-07-13T09:16:54.121Z,15.73
2018-07-13T09:19:23.877Z,16.17
2018-07-13T09:21:54.439Z,16.40
2018-07-13T09:24:24.541Z,16.87
2018-07-13T09:26:54.885Z,19.07
2018-07-13T09:29:35.529Z,18.20
2018-07-13T09:32:19.163Z,16.13
2018-07-13T09:34:49.798Z,16.53
2018-07-13T09:37:20.045Z,18.20
2018-07-13T09:39:57.266Z,16.97
2018-07-13T09:42:27.311Z,19.07
2018-07-13T09:44:58.097Z,17.40
2018-07-13T09:47:28.861Z,18.80
2018-07-13T09:49:58.846Z,17.00
2018-07-13T09:52:28.999Z,15.57
2018-07-13T09:55:10.139Z,19.40
2018-07-13T09:57:39.997Z,16.37
2018-07-13T10:00:13.789Z,16.53
2018-07-13T10:02:43.590Z,16.77
2018-07-13T10:05:13.608Z,16.47
2018-07-13T10:07:43.676Z,15.10
2018-07-13T10:10:13.619Z,17.30
2018-07-13T10:12:43.491Z,16.17
2018-07-13T10:15:24.060Z,14.77
2018-07-13T10:17:54.120Z,13.40
2018-07-13T10:20:25.040Z,11.97
2018-07-13T10:22:55.036Z,12.53
2018-07-13T10:25:28.009Z,13.17
2018-07-13T10:28:06.800Z,12.13
2018-07-13T10:30:38.803Z,10.43
2018-07-13T10:33:09.593Z,11.70
2018-07-13T10:35:42.238Z,10.10
2018-07-13T10:38:12.230Z,10.63
2018-07-13T10:40:42.390Z,12.60
2018-07-13T10:43:14.342Z,12.90
2018-07-13T10:45:44.299Z,11.53
2018-07-13T10:48:14.976Z,11.07
2018-07-13T10:50:44.798Z,11.60
2018-07-13T10:53:25.926Z,9.63
2018-07-13T10:55:57.504Z,9.33
2018-07-13T10:58:36.884Z,10.27
2018-07-13T11:01:07.138Z,8.60
2018-07-13T11:03:36.968Z,9.60
2018-07-13T11:06:07.245Z,9.53
2018-07-13T11:08:43.841Z,8.30
2018-07-13T11:11:18.233Z,8.20
2018-07-13T11:13:48.533Z,8.67
2018-07-13T11:16:18.558Z,9.90
2018-07-13T11:18:48.798Z,9.83
2018-07-13T11:21:19.826Z,10.50
2018-07-13T11:23:49.728Z,8.90
2018-07-13T11:26:26.539Z,10.00
2018-07-13T11:28:56.465Z,8.83
2018-07-13T11:31:26.619Z,8.17
2018-07-13T11:34:02.686Z,8.70
2018-07-13T11:36:32.756Z,9.67
2018-07-13T11:39:02.840Z,8.60
2018-07-13T11:41:32.752Z,8.87
2018-07-13T11:44:03.252Z,8.27
2018-07-13T11:46:33.145Z,9.07
2018-07-13T11:49:04.264Z,8.30
2018-07-13T11:51:46.033Z,8.27
2018-07-13T11:54:16.837Z,8.17
2018-07-13T11:56:47.119Z,8.33
2018-07-13T11:59:17.110Z,8.17
2018-07-13T12:01:46.964Z,8.23
2018-07-13T12:04:17.232Z,7.17
2018-07-13T12:06:46.952Z,7.57
2018-07-13T12:09:28.673Z,7.53
2018-07-13T12:11:58.753Z,7.93
2018-07-13T12:14:35.844Z,7.60
2018-07-13T12:17:05.894Z,6.63
2018-07-13T12:19:36.306Z,8.30
2018-07-13T12:22:06.081Z,7.87
2018-07-13T12:24:35.926Z,7.90
2018-07-13T12:27:06.046Z,7.10
2018-07-13T12:29:35.957Z,6.37
2018-07-13T12:32:05.763Z,6.63
2018-07-13T12:37:37.945Z,6.60
2018-07-13T12:40:08.416Z,9.30
2018-07-13T12:42:38.131Z,7.60
2018-07-13T12:45:07.976Z,7.33
2018-07-13T12:47:49.786Z,7.43
2018-07-13T12:50:19.869Z,6.90
2018-07-13T12:52:51.015Z,6.90
2018-07-13T12:55:21.909Z,6.60
2018-07-13T12:57:51.927Z,7.13
2018-07-13T13:00:22.090Z,6.57
2018-07-13T13:02:51.883Z,6.70
2018-07-13T13:05:21.904Z,6.43
2018-07-13T13:07:52.415Z,6.40
2018-07-13T13:10:22.336Z,5.17
2018-07-13T13:13:03.842Z,5.00
2018-07-13T13:15:36.911Z,4.90
2018-07-13T13:18:15.393Z,4.53
2018-07-13T13:20:45.614Z,5.00
2018-07-13T13:23:15.790Z,4.07
2018-07-13T13:25:46.642Z,4.17
2018-07-13T13:28:16.669Z,4.33
2018-07-13T13:30:46.430Z,4.30
2018-07-13T13:33:16.137Z,4.50
2018-07-13T13:35:47.271Z,4.20
2018-07-13T13:38:19.083Z,4.20
2018-07-13T13:40:53.835Z,3.33
2018-07-13T13:43:24.237Z,5.70
2018-07-13T13:45:54.212Z,4.00
2018-07-13T13:48:23.839Z,4.23
2018-07-13T13:50:58.191Z,3.90
2018-07-13T13:53:27.902Z,4.10
2018-07-13T13:55:57.817Z,4.10
2018-07-13T13:58:37.554Z,3.97
2018-07-13T14:01:08.372Z,3.50
2018-07-13T14:03:40.026Z,3.80
2018-07-13T14:06:10.091Z,4.30
2018-07-13T14:08:48.983Z,3.53
2018-07-13T14:11:19.233Z,3.90
2018-07-13T14:13:49.754Z,3.67
2018-07-13T14:16:19.648Z,4.00
2018-07-13T14:18:49.425Z,3.97
2018-07-13T14:21:19.244Z,3.20
2018-07-13T14:23:49.706Z,3.80
2018-07-13T14:26:19.721Z,3.57
2018-07-13T14:28:49.437Z,3.73
2018-07-13T14:31:19.158Z,3.97
2018-07-13T14:33:49.413Z,3.50
2018-07-13T14:36:19.329Z,3.97
2018-07-13T14:38:49.311Z,3.40
2018-07-13T14:41:22.377Z,3.10
2018-07-13T14:43:52.157Z,3.63
2018-07-13T14:47:24.289Z,3.60
2018-07-13T14:49:53.987Z,3.50
2018-07-13T14:55:12.317Z,3.43
2018-07-13T14:57:42.498Z,5.07
2018-07-13T15:00:13.443Z,4.27
2018-07-13T15:02:43.343Z,4.07
2018-07-13T15:05:14.258Z,3.37
2018-07-13T15:07:57.079Z,4.30
2018-07-13T15:10:34.555Z,4.30
2018-07-13T15:13:04.281Z,3.73
2018-07-13T15:15:38.654Z,3.67
2018-07-13T15:18:11.930Z,4.10
2018-07-13T15:20:50.998Z,4.13
2018-07-13T15:23:25.946Z,4.13
2018-07-13T15:26:02.612Z,4.13
2018-07-13T15:28:37.569Z,3.73
2018-07-13T16:09:46.707Z,3.37
2018-07-13T16:12:17.128Z,4.20
2018-07-13T16:14:47.612Z,4.20
2018-07-13T16:17:17.886Z,3.70
2018-07-13T16:19:54.556Z,3.93
2018-07-13T16:22:25.122Z,3.60
2018-07-13T16:24:55.184Z,3.63
2018-07-13T16:27:25.973Z,3.70
2018-07-13T16:29:56.208Z,3.77
2018-07-13T16:32:26.164Z,4.00
2018-07-13T16:34:56.692Z,4.07
2018-07-13T16:37:40.902Z,3.33
2018-07-13T16:40:24.306Z,3.70
2018-07-13T16:43:32.956Z,3.43
2018-07-13T16:49:40.533Z,3.23
2018-07-13T16:52:28.842Z,3.30
2018-07-13T16:58:32.156Z,3.90
2018-07-13T17:04:31.097Z,3.43
2018-07-13T17:07:00.720Z,4.80
2018-07-13T17:16:13.180Z,4.30
2018-07-13T17:18:57.147Z,3.80
2018-07-13T17:24:52.696Z,4.10
2018-07-13T17:27:37.314Z,3.43
2018-07-13T17:30:09.119Z,4.30
2018-07-13T17:33:06.912Z,3.90
2018-07-13T17:35:40.269Z,4.00
2018-07-13T17:38:48.709Z,4.33
2018-07-13T17:41:31.844Z,4.37
2018-07-13T17:44:16.382Z,4.40
2018-07-13T17:53:43.142Z,3.97
2018-07-13T17:56:14.339Z,4.07
2018-07-13T18:02:35.199Z,4.80
2018-07-13T18:05:19.373Z,4.30
2018-07-13T18:08:14.278Z,3.80
2018-07-13T18:11:01.539Z,3.93
2018-07-13T18:14:01.413Z,3.73
2018-07-13T18:16:32.251Z,4.50
2018-07-13T18:19:28.696Z,4.47
2018-07-13T18:22:38.747Z,4.57
2018-07-13T18:28:43.415Z,4.57
2018-07-13T18:38:21.071Z,4.40
2018-07-13T18:44:51.545Z,4.90
2018-07-13T19:01:12.065Z,5.20
2018-07-13T19:04:24.434Z,5.80
2018-07-13T19:14:09.794Z,5.50
2018-07-13T19:16:45.710Z,4.67
2018-07-13T19:19:31.717Z,4.50
2018-07-13T19:22:31.079Z,4.80
2018-07-13T19:32:07.746Z,4.90
2018-07-13T19:38:15.106Z,4.70
2018-07-13T19:54:46.719Z,4.93
2018-07-13T19:57:29.609Z,4.83
2018-07-13T20:00:16.930Z,5.10
2018-07-13T20:06:02.863Z,5.13
2018-07-13T20:11:55.490Z,5.13
2018-07-13T20:14:37.232Z,5.20
2018-07-13T20:17:08.755Z,5.60
2018-07-13T20:23:02.307Z,7.23
2018-07-13T20:25:51.195Z,6.33
2018-07-13T20:45:44.383Z,8.53
2018-07-13T20:54:57.290Z,8.37
2018-07-13T21:10:54.100Z,8.23
2018-07-13T21:16:50.926Z,8.37
2018-07-13T21:26:15.332Z,8.87
2018-07-13T21:36:08.416Z,7.30
2018-07-13T21:38:46.756Z,8.23
2018-07-13T21:44:33.848Z,8.23
2018-07-13T21:50:43.948Z,8.70
2018-07-13T22:09:21.700Z,9.53
2018-07-13T22:12:29.921Z,8.10
2018-07-13T22:21:32.751Z,9.40
2018-07-13T22:30:43.203Z,18.20
2018-07-13T22:33:42.322Z,16.67
2018-07-13T22:36:53.901Z,15.90
2018-07-13T22:39:52.086Z,16.77
2018-07-13T22:45:31.521Z,16.33
2018-07-13T22:48:16.088Z,16.17
2018-07-13T22:50:46.449Z,14.40
2018-07-13T22:53:16.193Z,16.90
2018-07-13T22:55:58.530Z,13.83
2018-07-13T22:58:28.373Z,12.83
2018-07-13T23:00:59.807Z,14.27
2018-07-13T23:03:48.160Z,12.90
2018-07-13T23:06:19.440Z,12.67
2018-07-13T23:09:00.669Z,13.27
2018-07-13T23:12:02.840Z,12.03
2018-07-13T23:17:54.374Z,11.00
2018-07-13T23:20:51.780Z,11.20
2018-07-13T23:26:56.112Z,8.80
2018-07-13T23:29:40.435Z,9.30
2018-07-13T23:32:27.387Z,9.23
2018-07-13T23:35:06.925Z,8.63
2018-07-13T23:37:51.073Z,9.37
2018-07-13T23:59:42.793Z,9.87
